createdAt,value
2019-03-20T00:00:47.094Z,1.27
2019-03-20T00:03:16.320Z,1.35
2019-03-20T00:05:45.622Z,1.33
2019-03-20T00:08:14.877Z,1.38
2019-03-20T00:10:44.131Z,1.39
2019-03-20T00:13:13.391Z,1.31
2019-03-20T00:15:42.643Z,1.29
2019-03-20T00:18:11.898Z,1.39
2019-03-20T00:20:41.129Z,1.20
2019-03-20T00:23:10.453Z,1.23
2019-03-20T00:25:39.730Z,1.04
2019-03-20T00:28:22.857Z,1.23
2019-03-20T00:30:52.104Z,1.15
2019-03-20T00:33:21.373Z,1.09
2019-03-20T00:35:50.611Z,1.07
2019-03-20T00:38:19.860Z,0.98
2019-03-20T00:40:49.131Z,1.03
2019-03-20T00:43:18.381Z,0.98
2019-03-20T00:45:47.658Z,0.97
2019-03-20T00:48:16.919Z,0.90
2019-03-20T00:50:46.172Z,0.85
2019-03-20T00:53:15.410Z,0.85
2019-03-20T00:55:44.691Z,0.92
2019-03-20T00:58:13.958Z,1.00
2019-03-20T01:00:43.197Z,0.76
2019-03-20T01:03:12.483Z,0.90
2019-03-20T01:05:41.757Z,1.05
2019-03-20T01:08:11.017Z,0.91
2019-03-20T01:10:40.270Z,0.85
2019-03-20T01:13:09.508Z,0.75
2019-03-20T01:15:38.767Z,0.85
2019-03-20T01:18:08.005Z,0.65
2019-03-20T01:20:37.272Z,0.95
2019-03-20T01:23:06.553Z,0.90
2019-03-20T01:25:35.797Z,0.72
2019-03-20T01:28:05.079Z,0.63
2019-03-20T01:30:35.212Z,0.50
2019-03-20T01:33:05.957Z,0.43
2019-03-20T01:35:35.316Z,0.43
2019-03-20T01:38:04.679Z,0.48
2019-03-20T01:40:33.941Z,0.65
2019-03-20T01:43:03.275Z,0.44
2019-03-20T01:45:32.569Z,0.61
2019-03-20T01:48:01.811Z,0.43
2019-03-20T01:50:31.455Z,0.59
2019-03-20T01:53:00.784Z,0.36
2019-03-20T01:55:30.013Z,0.59
2019-03-20T01:57:59.299Z,0.41
2019-03-20T02:00:28.638Z,0.37
2019-03-20T02:02:57.895Z,0.43
2019-03-20T02:05:35.742Z,0.45
2019-03-20T02:07:58.216Z,0.56
2019-03-20T02:10:27.467Z,0.44
2019-03-20T02:12:58.716Z,0.41
2019-03-20T02:15:38.096Z,0.43
2019-03-20T02:17:58.674Z,0.55
2019-03-20T02:20:28.015Z,0.46
2019-03-20T02:22:57.266Z,0.49
2019-03-20T02:25:26.508Z,0.55
2019-03-20T02:27:55.766Z,0.59
2019-03-20T02:30:25.007Z,0.34
2019-03-20T02:33:02.357Z,0.28
2019-03-20T02:35:31.577Z,0.28
2019-03-20T02:38:00.842Z,0.33
2019-03-20T02:40:30.088Z,0.23
2019-03-20T02:42:59.371Z,0.11
2019-03-20T02:45:28.662Z,0.18
2019-03-20T02:47:57.943Z,0.13
2019-03-20T02:50:27.233Z,0.23
2019-03-20T02:52:56.476Z,0.35
2019-03-20T02:55:25.760Z,0.15
2019-03-20T02:57:55.036Z,0.27
2019-03-20T03:00:24.314Z,0.49
2019-03-20T03:02:53.552Z,0.24
2019-03-20T03:05:22.784Z,0.51
2019-03-20T03:07:53.008Z,0.49
2019-03-20T03:10:22.239Z,0.60
2019-03-20T03:12:51.504Z,0.48
2019-03-20T03:15:20.796Z,0.46
2019-03-20T03:17:50.024Z,0.50
2019-03-20T03:20:19.269Z,0.60
2019-03-20T03:22:48.506Z,0.44
2019-03-20T03:25:17.775Z,0.45
2019-03-20T03:27:47.032Z,0.44
2019-03-20T03:30:16.474Z,0.52
2019-03-20T03:32:46.007Z,0.60
2019-03-20T03:35:17.696Z,0.56
2019-03-20T03:37:46.357Z,0.38
2019-03-20T03:40:15.757Z,0.33
2019-03-20T03:42:45.058Z,0.27
2019-03-20T03:45:14.324Z,0.16
2019-03-20T03:47:43.590Z,-0.01
2019-03-20T03:50:13.536Z,0.34
2019-03-20T03:52:42.787Z,0.40
2019-03-20T03:55:12.113Z,0.26
2019-03-20T03:57:55.653Z,0.16
2019-03-20T04:00:24.897Z,0.17
2019-03-20T04:02:54.140Z,0.09
2019-03-20T04:05:23.418Z,0.28
2019-03-20T04:07:52.717Z,0.17
2019-03-20T04:10:21.961Z,0.18
2019-03-20T04:12:51.240Z,0.27
2019-03-20T04:15:20.502Z,0.42
2019-03-20T04:17:49.758Z,0.47
2019-03-20T04:20:19.055Z,0.33
2019-03-20T04:22:48.305Z,0.31
2019-03-20T04:25:17.649Z,0.28
2019-03-20T04:27:46.916Z,0.47
2019-03-20T04:30:16.190Z,0.46
2019-03-20T04:32:45.445Z,0.12
2019-03-20T04:35:15.002Z,0.28
2019-03-20T04:37:44.233Z,0.35
2019-03-20T04:40:13.512Z,0.21
2019-03-20T04:42:42.785Z,0.30
2019-03-20T04:45:12.803Z,0.28
2019-03-20T04:47:42.099Z,0.30
2019-03-20T04:50:11.536Z,0.29
2019-03-20T04:52:40.774Z,0.47
2019-03-20T04:55:10.348Z,0.33
2019-03-20T04:57:39.628Z,0.24
2019-03-20T05:00:11.157Z,0.31
2019-03-20T05:02:40.420Z,0.34
2019-03-20T05:05:09.763Z,0.50
2019-03-20T05:07:38.994Z,0.35
2019-03-20T05:10:10.092Z,0.50
2019-03-20T05:12:39.351Z,0.56
2019-03-20T05:15:09.277Z,0.49
2019-03-20T05:17:38.563Z,0.37
2019-03-20T05:20:09.274Z,0.28
2019-03-20T05:22:38.597Z,0.25
2019-03-20T05:25:07.966Z,0.46
2019-03-20T05:27:37.227Z,0.46
2019-03-20T05:30:06.643Z,0.64
2019-03-20T05:32:35.876Z,0.35
2019-03-20T05:35:05.440Z,0.51
2019-03-20T05:37:34.697Z,0.49
2019-03-20T05:40:04.167Z,0.62
2019-03-20T05:42:33.426Z,0.79
2019-03-20T05:45:02.745Z,0.59
2019-03-20T05:47:31.998Z,0.48
2019-03-20T05:50:01.242Z,0.36
2019-03-20T05:52:30.750Z,0.64
2019-03-20T05:55:00.587Z,0.62
2019-03-20T05:57:30.403Z,0.64
2019-03-20T06:00:00.061Z,0.58
2019-03-20T06:02:35.148Z,0.30
2019-03-20T06:05:05.150Z,0.30
2019-03-20T06:07:34.526Z,0.30
2019-03-20T06:10:04.511Z,0.20
2019-03-20T06:12:33.787Z,0.32
2019-03-20T06:15:03.459Z,0.19
2019-03-20T06:17:33.273Z,0.26
2019-03-20T06:20:02.520Z,0.19
2019-03-20T06:22:31.865Z,0.16
2019-03-20T06:25:01.185Z,0.16
2019-03-20T06:27:31.133Z,0.22
2019-03-20T06:30:00.484Z,0.28
2019-03-20T06:32:30.115Z,0.26
2019-03-20T06:34:59.874Z,0.26
2019-03-20T06:37:32.764Z,0.30
2019-03-20T06:40:01.157Z,0.37
2019-03-20T06:42:30.489Z,0.54
2019-03-20T06:44:59.763Z,0.65
2019-03-20T06:47:29.134Z,0.60
2019-03-20T06:49:58.855Z,0.79
2019-03-20T06:52:28.376Z,0.85
2019-03-20T06:54:57.786Z,1.02
2019-03-20T06:57:27.478Z,1.13
2019-03-20T07:00:52.947Z,0.96
2019-03-20T07:03:29.432Z,1.28
2019-03-20T07:06:27.995Z,1.14
2019-03-20T07:09:10.592Z,1.38
2019-03-20T07:11:40.627Z,1.59
2019-03-20T07:14:10.143Z,1.65
2019-03-20T07:16:39.721Z,1.82
2019-03-20T07:19:09.208Z,1.85
2019-03-20T07:21:38.464Z,2.36
2019-03-20T07:24:19.198Z,2.92
2019-03-20T07:26:48.537Z,3.38
2019-03-20T07:29:17.788Z,4.40
2019-03-20T07:31:47.039Z,5.69
2019-03-20T07:34:16.276Z,7.87
2019-03-20T07:36:45.603Z,9.10
2019-03-20T07:39:14.838Z,8.94
2019-03-20T07:41:44.110Z,9.13
2019-03-20T07:44:13.384Z,10.36
2019-03-20T07:46:42.668Z,10.86
2019-03-20T07:49:11.934Z,12.95
2019-03-20T07:51:41.189Z,12.99
2019-03-20T07:54:10.453Z,13.37
2019-03-20T07:56:39.726Z,13.81
2019-03-20T07:59:08.966Z,11.90
2019-03-20T08:01:38.265Z,13.57
2019-03-20T08:04:07.541Z,14.53
2019-03-20T08:06:36.843Z,11.77
2019-03-20T08:09:07.948Z,11.83
2019-03-20T08:11:37.195Z,12.79
2019-03-20T08:14:06.456Z,13.37
2019-03-20T08:16:35.689Z,15.53
2019-03-20T08:19:05.050Z,13.66
2019-03-20T08:21:34.310Z,12.90
2019-03-20T08:24:03.556Z,13.19
2019-03-20T08:26:32.826Z,14.16
2019-03-20T08:29:02.055Z,12.72
2019-03-20T08:31:31.323Z,13.06
2019-03-20T08:34:00.593Z,13.03
2019-03-20T08:36:29.867Z,16.13
2019-03-20T08:38:59.092Z,16.78
2019-03-20T08:41:28.352Z,15.27
2019-03-20T08:43:57.659Z,15.64
2019-03-20T08:46:26.896Z,15.87
2019-03-20T08:48:56.186Z,17.18
2019-03-20T08:51:25.487Z,16.92
2019-03-20T08:53:56.310Z,16.77
2019-03-20T08:56:25.743Z,15.69
2019-03-20T08:58:55.105Z,14.50
2019-03-20T09:01:28.531Z,16.10
2019-03-20T09:03:55.360Z,17.14
2019-03-20T09:06:24.623Z,16.58
2019-03-20T09:08:53.960Z,16.01
2019-03-20T09:11:23.201Z,16.15
2019-03-20T09:13:52.499Z,15.36
2019-03-20T09:16:21.809Z,14.53
2019-03-20T09:18:51.057Z,15.89
2019-03-20T09:21:20.336Z,15.74
2019-03-20T09:23:49.646Z,14.30
2019-03-20T09:26:18.916Z,17.41
2019-03-20T09:28:59.079Z,17.34
2019-03-20T09:31:28.380Z,16.72
2019-03-20T09:33:57.658Z,13.84
2019-03-20T09:36:26.991Z,15.30
2019-03-20T09:38:56.332Z,15.87
2019-03-20T09:41:25.637Z,17.26
2019-03-20T09:43:54.919Z,15.74
2019-03-20T09:46:24.179Z,18.53
2019-03-20T09:48:53.447Z,18.18
2019-03-20T09:51:22.722Z,17.51
2019-03-20T09:53:52.006Z,16.52
2019-03-20T09:56:21.270Z,17.79
2019-03-20T09:58:50.548Z,17.74
2019-03-20T10:01:19.830Z,19.53
2019-03-20T10:03:49.081Z,19.64
2019-03-20T10:06:18.366Z,17.44
2019-03-20T10:08:53.974Z,15.65
2019-03-20T10:11:18.696Z,16.26
2019-03-20T10:13:48.040Z,17.46
2019-03-20T10:16:17.338Z,17.84
2019-03-20T10:18:46.628Z,18.32
2019-03-20T10:21:15.871Z,16.47
2019-03-20T10:23:45.255Z,15.44
2019-03-20T10:26:14.569Z,14.91
2019-03-20T10:28:43.882Z,15.71
2019-03-20T10:31:13.308Z,14.49
2019-03-20T10:33:42.625Z,14.49
2019-03-20T10:36:11.867Z,15.41
2019-03-20T10:38:41.151Z,16.51
2019-03-20T10:41:10.429Z,17.64
2019-03-20T10:43:39.708Z,17.91
2019-03-20T10:46:09.023Z,17.10
2019-03-20T10:48:38.601Z,17.34
2019-03-20T10:51:08.602Z,17.46
2019-03-20T10:53:37.881Z,16.41
2019-03-20T10:56:07.303Z,17.22
2019-03-20T10:58:36.608Z,17.56
2019-03-20T11:01:06.029Z,16.21
2019-03-20T11:03:35.429Z,16.84
2019-03-20T11:06:04.807Z,17.88
2019-03-20T11:08:34.126Z,16.85
2019-03-20T11:11:03.562Z,17.01
2019-03-20T11:13:32.875Z,15.25
2019-03-20T11:16:02.363Z,15.41
2019-03-20T11:18:31.687Z,14.85
2019-03-20T11:21:01.006Z,14.70
2019-03-20T11:23:30.328Z,13.88
2019-03-20T11:26:00.101Z,13.70
2019-03-20T11:28:29.501Z,14.11
2019-03-20T11:30:58.809Z,14.35
2019-03-20T11:33:28.134Z,15.30
2019-03-20T11:35:57.482Z,15.88
2019-03-20T11:38:26.782Z,15.56
2019-03-20T11:40:56.178Z,15.16
2019-03-20T11:43:25.510Z,15.70
2019-03-20T11:45:55.157Z,16.66
2019-03-20T11:48:24.480Z,16.22
2019-03-20T11:50:54.029Z,16.11
2019-03-20T11:53:23.316Z,16.19
2019-03-20T11:55:52.630Z,15.75
2019-03-20T11:58:21.965Z,14.67
2019-03-20T12:00:51.291Z,16.18
2019-03-20T12:03:20.668Z,18.84
2019-03-20T12:05:50.057Z,18.02
2019-03-20T12:08:19.367Z,17.67
2019-03-20T12:10:48.799Z,17.39
2019-03-20T12:13:20.007Z,18.00
2019-03-20T12:15:49.438Z,18.32
2019-03-20T12:18:18.766Z,18.63
2019-03-20T12:20:48.072Z,17.67
2019-03-20T12:23:17.403Z,17.01
2019-03-20T12:25:46.738Z,17.08
2019-03-20T12:28:16.066Z,17.08
2019-03-20T12:30:45.510Z,17.84
2019-03-20T12:33:14.862Z,18.39
2019-03-20T12:35:44.531Z,18.17
2019-03-20T12:38:15.303Z,17.60
2019-03-20T12:40:44.824Z,18.21
2019-03-20T12:43:14.257Z,18.57
2019-03-20T12:45:43.595Z,18.27
2019-03-20T12:48:12.882Z,19.01
2019-03-20T12:50:42.304Z,18.83
2019-03-20T12:53:12.353Z,17.50
2019-03-20T12:55:41.635Z,16.22
2019-03-20T12:58:11.036Z,17.24
2019-03-20T13:00:40.608Z,15.11
2019-03-20T13:03:09.947Z,13.83
2019-03-20T13:05:39.335Z,14.12
2019-03-20T13:08:08.670Z,15.00
2019-03-20T13:10:38.002Z,14.13
2019-03-20T13:13:07.368Z,14.23
2019-03-20T13:15:36.722Z,14.77
2019-03-20T13:18:06.002Z,14.42
2019-03-20T13:20:35.352Z,13.61
2019-03-20T13:23:07.344Z,13.85
2019-03-20T13:25:36.641Z,13.74
2019-03-20T13:28:05.920Z,13.83
2019-03-20T13:30:38.260Z,13.53
2019-03-20T13:33:07.534Z,13.43
2019-03-20T13:35:38.495Z,13.08
2019-03-20T13:38:07.799Z,13.29
2019-03-20T13:40:37.108Z,13.10
2019-03-20T13:43:06.508Z,13.10
2019-03-20T13:45:35.848Z,12.79
2019-03-20T13:48:05.137Z,12.47
2019-03-20T13:50:34.450Z,12.84
2019-03-20T13:53:03.735Z,12.82
2019-03-20T13:55:33.056Z,13.03
2019-03-20T13:58:02.351Z,12.93
2019-03-20T14:00:31.631Z,13.27
2019-03-20T14:03:00.944Z,12.92
2019-03-20T14:05:30.225Z,12.79
2019-03-20T14:07:59.560Z,12.90
2019-03-20T14:10:28.892Z,12.69
2019-03-20T14:12:58.250Z,12.38
2019-03-20T14:15:27.558Z,12.11
2019-03-20T14:17:56.944Z,12.55
2019-03-20T14:20:26.409Z,12.66
2019-03-20T14:22:55.816Z,12.41
2019-03-20T14:25:25.117Z,12.21
2019-03-20T14:27:54.469Z,12.12
2019-03-20T14:30:25.298Z,12.28
2019-03-20T14:32:54.711Z,12.00
2019-03-20T14:35:24.021Z,11.91
2019-03-20T14:37:53.424Z,12.14
2019-03-20T14:40:31.634Z,11.79
2019-03-20T14:42:55.866Z,11.25
2019-03-20T14:45:25.190Z,11.41
2019-03-20T14:47:54.680Z,10.98
2019-03-20T14:50:25.017Z,11.05
2019-03-20T14:52:54.431Z,11.35
2019-03-20T14:55:23.793Z,12.02
2019-03-20T14:57:53.494Z,11.75
2019-03-20T15:00:24.389Z,12.12
2019-03-20T15:02:53.887Z,12.16
2019-03-20T15:05:23.446Z,12.27
2019-03-20T15:07:52.810Z,12.29
2019-03-20T15:10:22.360Z,12.28
2019-03-20T15:12:51.713Z,12.07
2019-03-20T15:15:24.025Z,11.99
2019-03-20T15:17:53.340Z,12.00
2019-03-20T15:20:22.741Z,12.04
2019-03-20T15:22:52.107Z,11.91
2019-03-20T15:25:21.443Z,11.75
2019-03-20T15:27:50.810Z,11.93
2019-03-20T15:30:20.272Z,11.95
2019-03-20T15:32:49.575Z,11.79
2019-03-20T15:35:18.955Z,11.85
2019-03-20T15:37:48.259Z,11.38
2019-03-20T15:40:17.814Z,11.23
2019-03-20T15:42:47.168Z,11.65
2019-03-20T15:45:16.767Z,11.72
2019-03-20T15:47:46.211Z,11.54
2019-03-20T15:50:16.379Z,11.54
2019-03-20T15:52:45.677Z,11.68
2019-03-20T15:55:17.706Z,11.67
2019-03-20T15:57:47.200Z,11.71
2019-03-20T16:00:18.097Z,11.55
2019-03-20T16:02:48.187Z,11.39
2019-03-20T16:05:17.620Z,11.33
2019-03-20T16:07:46.950Z,11.32
2019-03-20T16:10:20.374Z,11.32
2019-03-20T16:12:49.766Z,11.35
2019-03-20T16:15:19.903Z,10.97
2019-03-20T16:17:49.250Z,10.90
2019-03-20T16:20:25.329Z,10.77
2019-03-20T16:22:54.656Z,10.86
2019-03-20T16:25:23.977Z,10.92
2019-03-20T16:27:53.333Z,11.08
2019-03-20T16:30:23.102Z,11.29
2019-03-20T16:32:52.411Z,11.41
2019-03-20T16:35:21.838Z,11.45
2019-03-20T16:37:51.200Z,11.19
2019-03-20T16:40:22.293Z,10.99
2019-03-20T16:42:51.700Z,11.25
2019-03-20T16:45:23.255Z,11.36
2019-03-20T16:47:52.613Z,11.07
2019-03-20T16:50:21.918Z,10.83
2019-03-20T16:52:51.279Z,10.76
2019-03-20T16:55:20.633Z,10.85
2019-03-20T16:57:50.085Z,10.80
2019-03-20T17:00:21.936Z,10.58
2019-03-20T17:02:51.420Z,10.50
2019-03-20T17:05:21.046Z,10.82
2019-03-20T17:07:50.354Z,10.69
2019-03-20T17:10:22.124Z,10.93
2019-03-20T17:12:53.228Z,10.56
2019-03-20T17:15:23.884Z,10.42
2019-03-20T17:17:53.209Z,10.62
2019-03-20T17:20:22.481Z,10.41
2019-03-20T17:22:51.786Z,10.29
2019-03-20T17:25:21.227Z,10.09
2019-03-20T17:27:50.971Z,10.02
2019-03-20T17:30:28.530Z,9.95
2019-03-20T17:32:57.920Z,9.84
2019-03-20T17:35:27.556Z,9.70
2019-03-20T17:37:57.183Z,9.64
2019-03-20T17:40:26.834Z,9.51
2019-03-20T17:42:56.546Z,9.43
2019-03-20T17:45:26.616Z,9.39
2019-03-20T17:47:56.179Z,9.33
2019-03-20T17:50:27.207Z,9.42
2019-03-20T17:52:56.507Z,9.31
2019-03-20T17:55:25.853Z,9.19
2019-03-20T17:57:55.251Z,9.13
2019-03-20T18:00:39.043Z,9.04
2019-03-20T18:03:08.670Z,8.91
2019-03-20T18:05:38.176Z,8.78
2019-03-20T18:08:07.686Z,8.71
2019-03-20T18:10:39.147Z,8.67
2019-03-20T18:13:09.171Z,8.56
2019-03-20T18:15:38.557Z,8.57
2019-03-20T18:18:08.503Z,8.56
2019-03-20T18:20:38.344Z,8.56
2019-03-20T18:23:08.728Z,8.51
2019-03-20T18:25:38.309Z,8.51
2019-03-20T18:28:07.657Z,8.46
2019-03-20T18:30:37.466Z,8.45
2019-03-20T18:33:06.894Z,8.39
2019-03-20T18:35:36.247Z,8.44
2019-03-20T18:38:06.200Z,8.41
2019-03-20T18:40:35.752Z,8.32
2019-03-20T18:43:05.420Z,8.28
2019-03-20T18:45:34.671Z,8.21
2019-03-20T18:48:04.247Z,8.15
2019-03-20T18:50:33.547Z,8.11
2019-03-20T18:53:02.864Z,8.02
2019-03-20T18:55:32.246Z,7.93
2019-03-20T18:58:01.540Z,7.87
2019-03-20T19:00:30.855Z,7.86
2019-03-20T19:03:00.336Z,7.84
2019-03-20T19:05:53.733Z,7.90
2019-03-20T19:08:23.069Z,7.93
2019-03-20T19:10:52.484Z,7.86
2019-03-20T19:13:24.300Z,7.83
2019-03-20T19:15:53.090Z,7.80
2019-03-20T19:18:22.402Z,7.66
2019-03-20T19:20:51.723Z,7.74
2019-03-20T19:23:21.485Z,7.66
2019-03-20T19:25:50.791Z,7.64
2019-03-20T19:28:20.074Z,7.61
2019-03-20T19:30:49.750Z,7.51
2019-03-20T19:33:19.056Z,7.40
2019-03-20T19:35:48.418Z,7.31
2019-03-20T19:38:17.717Z,7.27
2019-03-20T19:40:47.026Z,7.22
2019-03-20T19:43:16.391Z,7.10
2019-03-20T19:45:45.688Z,7.10
2019-03-20T19:48:14.987Z,7.05
2019-03-20T19:50:44.317Z,6.88
2019-03-20T19:53:13.663Z,6.77
2019-03-20T19:55:42.966Z,6.67
2019-03-20T19:58:12.265Z,6.66
2019-03-20T20:00:41.586Z,6.71
2019-03-20T20:03:10.877Z,6.58
2019-03-20T20:05:40.166Z,6.62
2019-03-20T20:08:09.408Z,6.61
2019-03-20T20:10:38.728Z,6.66
2019-03-20T20:13:08.004Z,6.62
2019-03-20T20:15:37.313Z,6.67
2019-03-20T20:18:06.700Z,6.57
2019-03-20T20:20:36.086Z,6.50
2019-03-20T20:23:05.580Z,6.42
2019-03-20T20:25:34.892Z,6.50
2019-03-20T20:28:04.383Z,6.56
2019-03-20T20:30:33.711Z,6.38
2019-03-20T20:33:03.032Z,6.29
2019-03-20T20:35:32.306Z,6.18
2019-03-20T20:38:01.566Z,6.34
2019-03-20T20:40:30.865Z,6.41
2019-03-20T20:43:00.109Z,6.27
2019-03-20T20:45:29.431Z,6.18
2019-03-20T20:48:00.193Z,6.12
2019-03-20T20:50:29.516Z,6.15
2019-03-20T20:52:58.792Z,6.15
2019-03-20T20:55:28.057Z,6.08
2019-03-20T20:57:57.295Z,6.03
2019-03-20T21:00:26.609Z,5.86
2019-03-20T21:02:55.857Z,5.88
2019-03-20T21:05:25.266Z,5.91
2019-03-20T21:07:54.510Z,5.87
2019-03-20T21:10:23.793Z,5.92
2019-03-20T21:13:02.441Z,5.90
2019-03-20T21:15:42.865Z,5.47
2019-03-20T21:18:59.292Z,5.45
2019-03-20T21:21:39.264Z,5.45
2019-03-20T21:24:25.761Z,5.23
2019-03-20T21:27:45.351Z,5.34
2019-03-20T21:30:50.849Z,5.18
2019-03-20T21:33:45.184Z,5.32
2019-03-20T21:37:01.372Z,5.20
2019-03-20T21:39:31.385Z,5.18
2019-03-20T21:42:40.404Z,4.76
2019-03-20T21:45:40.069Z,4.75
2019-03-20T21:48:10.023Z,4.66
2019-03-20T21:51:12.389Z,4.65
2019-03-20T21:54:24.279Z,4.74
2019-03-20T21:57:40.666Z,4.65
2019-03-20T22:00:51.126Z,4.84
2019-03-20T22:03:21.227Z,4.84
2019-03-20T22:06:33.114Z,4.68
2019-03-20T22:09:20.309Z,4.57
2019-03-20T22:12:18.548Z,4.44
2019-03-20T22:14:53.026Z,4.63
2019-03-20T22:17:57.720Z,4.62
2019-03-20T22:20:53.482Z,4.54
2019-03-20T22:24:18.400Z,4.32
2019-03-20T22:27:25.854Z,4.32
2019-03-20T22:29:55.787Z,4.08
2019-03-20T22:33:10.303Z,4.12
2019-03-20T22:36:16.733Z,4.25
2019-03-20T22:39:37.506Z,3.99
2019-03-20T22:42:40.407Z,3.91
2019-03-20T22:45:41.635Z,3.88
2019-03-20T22:48:39.420Z,4.11
2019-03-20T22:51:24.631Z,3.94
2019-03-20T22:54:30.580Z,3.71
2019-03-20T22:57:36.784Z,3.76
2019-03-20T23:00:07.963Z,3.68
2019-03-20T23:02:58.437Z,3.75
2019-03-20T23:05:28.486Z,3.82
2019-03-20T23:07:58.390Z,3.71
2019-03-20T23:10:28.280Z,3.76
2019-03-20T23:12:58.175Z,3.52
2019-03-20T23:15:27.967Z,3.52
2019-03-20T23:17:57.919Z,3.54
2019-03-20T23:20:28.059Z,3.66
2019-03-20T23:22:57.899Z,3.52
2019-03-20T23:25:27.989Z,3.59
2019-03-20T23:27:58.020Z,3.61
2019-03-20T23:30:28.361Z,3.52
2019-03-20T23:32:58.250Z,3.50
2019-03-20T23:35:28.022Z,3.45
2019-03-20T23:37:57.839Z,3.35
2019-03-20T23:40:27.645Z,3.30
2019-03-20T23:42:57.472Z,3.36
2019-03-20T23:45:27.259Z,2.95
2019-03-20T23:48:00.405Z,2.85
2019-03-20T23:50:30.228Z,3.00
2019-03-20T23:53:00.048Z,3.04
2019-03-20T23:55:29.820Z,3.03
2019-03-20T23:58:03.297Z,2.96
